Time;durP1;ratioP1;P1;durP2;ratioP2;P2;SDS_P1;SDS_P2;PMS_P1;PMS_P2;Temp;Humidity;BMP_temperature;BMP_pressure;BME280_temperature;BME280_humidity;BME280_pressure;Samples;Min_cycle;Max_cycle;Signal;HPM_P1;HPM_P2
2021/05/18 00:02:13;;;;;;;4.30;2.03;;;8.70;99.90;;;;;;5096803;28;20538;-81
2021/05/18 00:04:40;;;;;;;2.20;2.00;;;8.80;99.90;;;;;;5098139;28;20527;-81
2021/05/18 00:07:11;;;;;;;3.50;1.67;;;8.70;99.90;;;;;;5078971;28;20088;-81
2021/05/18 00:12:25;;;;;;;3.95;1.88;;;8.70;99.90;;;;;;5096961;28;20135;-81
2021/05/18 00:14:52;;;;;;;2.90;1.58;;;8.60;99.90;;;;;;5097701;28;20105;-81
2021/05/18 00:17:18;;;;;;;3.88;2.00;;;8.60;99.90;;;;;;5098430;28;20521;-80
2021/05/18 00:19:46;;;;;;;2.95;1.73;;;8.60;99.90;;;;;;5098588;28;20043;-80
2021/05/18 00:22:13;;;;;;;2.05;1.60;;;8.60;99.90;;;;;;5098542;28;20044;-79
2021/05/18 00:24:39;;;;;;;5.25;1.63;;;8.60;99.90;;;;;;5082042;28;20084;-81
2021/05/18 00:27:06;;;;;;;3.55;2.00;;;8.60;99.90;;;;;;5101019;28;20075;-81
2021/05/18 00:29:33;;;;;;;2.67;2.20;;;8.70;99.90;;;;;;5081957;28;20076;-81
2021/05/18 00:32:00;;;;;;;1.80;1.70;;;8.90;99.90;;;;;;5100394;28;20059;-81
2021/05/18 00:34:27;;;;;;;2.22;1.60;;;9.00;99.90;;;;;;5100209;28;20055;-81
2021/05/18 00:36:54;;;;;;;4.18;2.42;;;9.00;99.90;;;;;;5099139;28;20077;-81
2021/05/18 00:39:20;;;;;;;5.40;1.92;;;9.10;99.90;;;;;;5098693;28;20126;-81
2021/05/18 00:41:48;;;;;;;1.83;1.73;;;9.20;99.90;;;;;;5081478;28;20047;-81
2021/05/18 00:44:15;;;;;;;3.58;1.67;;;9.30;99.90;;;;;;5098932;28;20055;-81
2021/05/18 00:46:42;;;;;;;8.00;2.60;;;9.30;99.90;;;;;;5081698;28;20044;-81
2021/05/18 00:49:09;;;;;;;2.13;1.60;;;9.30;99.90;;;;;;5098061;28;20404;-81
2021/05/18 00:51:39;;;;;;;1.33;1.23;;;9.30;99.90;;;;;;5098815;28;20055;-80
2021/05/18 00:54:10;;;;;;;2.80;1.45;;;9.40;99.90;;;;;;5080874;28;20065;-81
2021/05/18 00:59:04;;;;;;;1.70;1.60;;;9.30;99.90;;;;;;5098547;28;20087;-82
2021/05/18 01:01:32;;;;;;;1.38;1.30;;;9.20;99.90;;;;;;5101819;28;20078;-82
2021/05/18 01:04:00;;;;;;;3.13;1.40;;;9.10;99.90;;;;;;5101839;28;20040;-81
2021/05/18 01:06:30;;;;;;;1.63;1.52;;;9.10;99.90;;;;;;5084782;28;20044;-82
2021/05/18 01:09:13;;;;;;;2.60;1.85;;;9.00;99.90;;;;;;5099935;28;20446;-81
2021/05/18 01:11:48;;;;;;;1.80;1.70;;;8.90;99.90;;;;;;5099111;28;20157;-82
2021/05/18 01:14:18;;;;;;;2.40;1.80;;;8.90;99.90;;;;;;5080112;28;20055;-81
2021/05/18 01:16:48;;;;;;;1.90;1.80;;;8.80;99.90;;;;;;5098856;28;20091;-81
2021/05/18 01:19:18;;;;;;;5.53;2.00;;;8.80;99.90;;;;;;5079572;28;20101;-81
2021/05/18 01:21:45;;;;;;;2.20;2.00;;;8.70;99.90;;;;;;5098783;28;20090;-81
2021/05/18 01:24:13;;;;;;;17.50;3.30;;;8.70;99.90;;;;;;5097710;28;20491;-81
2021/05/18 01:26:40;;;;;;;3.92;2.35;;;8.70;99.90;;;;;;5096969;28;20131;-82
2021/05/18 01:29:08;;;;;;;4.82;2.60;;;8.80;99.90;;;;;;5096943;28;20044;-80
2021/05/18 01:31:36;;;;;;;2.05;1.95;;;8.90;99.90;;;;;;5097509;28;20058;-81
2021/05/18 01:34:04;;;;;;;2.38;2.28;;;9.10;99.90;;;;;;5097258;28;20052;-81
2021/05/18 01:36:32;;;;;;;2.58;2.28;;;9.10;99.90;;;;;;5096978;28;20461;-82
2021/05/18 01:39:23;;;;;;;2.65;2.45;;;9.20;99.90;;;;;;5096912;28;20531;-81
2021/05/18 01:44:36;;;;;;;3.05;1.98;;;9.30;99.90;;;;;;5096928;28;20044;-81
2021/05/18 01:47:04;;;;;;;2.88;2.35;;;9.40;99.90;;;;;;5079082;28;20044;-81
2021/05/18 01:49:31;;;;;;;2.83;2.20;;;9.30;99.90;;;;;;5096907;28;20080;-82
2021/05/18 01:52:00;;;;;;;6.72;2.50;;;9.40;99.90;;;;;;5096787;28;20044;-81
2021/05/18 01:54:32;;;;;;;2.63;2.30;;;9.40;99.90;;;;;;5078142;28;20052;-81
2021/05/18 01:59:30;;;;;;;3.40;2.58;;;9.50;99.90;;;;;;5096135;28;20469;-81
2021/05/18 02:02:02;;;;;;;5.30;2.65;;;9.50;99.90;;;;;;5096223;28;20044;-82
2021/05/18 02:04:34;;;;;;;3.58;2.60;;;9.50;99.90;;;;;;5095310;28;20195;-82
2021/05/18 02:07:05;;;;;;;3.03;2.20;;;9.60;99.90;;;;;;5097325;28;20040;-82
2021/05/18 02:09:31;;;;;;;2.78;2.53;;;9.60;99.90;;;;;;5097738;28;20052;-82
2021/05/18 02:11:58;;;;;;;3.03;2.35;;;9.60;99.90;;;;;;5097752;28;20082;-82
2021/05/18 02:14:28;;;;;;;4.88;2.40;;;9.60;99.90;;;;;;5098700;28;20098;-82
2021/05/18 02:17:04;;;;;;;3.00;2.70;;;9.70;99.90;;;;;;5098412;28;20086;-82
2021/05/18 02:20:13;;;;;;;9.02;2.65;;;9.70;99.90;;;;;;5079899;28;20079;-82
2021/05/18 02:25:09;;;;;;;4.53;2.20;;;9.70;99.90;;;;;;5097808;28;20066;-81
2021/05/18 02:27:36;;;;;;;12.10;2.83;;;9.80;99.90;;;;;;5096808;28;20044;-82
2021/05/18 02:30:06;;;;;;;3.67;3.00;;;9.80;99.90;;;;;;5096454;28;20087;-81
2021/05/18 02:32:33;;;;;;;3.22;3.03;;;9.80;99.90;;;;;;5078354;28;20099;-81
2021/05/18 02:35:00;;;;;;;5.55;3.05;;;9.80;99.90;;;;;;5095802;28;20044;-81
2021/05/18 02:37:27;;;;;;;5.10;2.90;;;9.80;99.90;;;;;;5077851;28;20087;-81
2021/05/18 02:39:54;;;;;;;5.10;2.60;;;9.80;99.90;;;;;;5095847;28;20083;-81
2021/05/18 02:42:21;;;;;;;5.03;2.75;;;9.80;99.90;;;;;;5077024;28;20044;-82
2021/05/18 02:45:02;;;;;;;5.32;3.15;;;9.90;99.90;;;;;;5077402;28;20535;-81
2021/05/18 02:50:14;;;;;;;9.00;4.10;;;9.90;99.90;;;;;;5094908;28;20082;-80
2021/05/18 02:52:42;;;;;;;9.52;4.78;;;9.90;99.90;;;;;;5095399;28;20048;-82
2021/05/18 02:55:14;;;;;;;6.43;3.85;;;9.90;99.90;;;;;;5094985;28;20135;-81
2021/05/18 02:57:43;;;;;;;6.03;3.50;;;9.90;99.90;;;;;;5094612;28;20169;-82
2021/05/18 03:00:18;;;;;;;5.13;3.33;;;9.80;99.90;;;;;;5094262;28;20290;-81
2021/05/18 03:02:46;;;;;;;3.75;3.42;;;9.80;99.90;;;;;;5075955;28;20131;-81
2021/05/18 03:05:12;;;;;;;4.00;3.28;;;9.70;99.90;;;;;;5094409;28;20127;-82
2021/05/18 03:07:39;;;;;;;7.30;3.33;;;9.70;99.90;;;;;;5094225;28;20187;-82
2021/05/18 03:10:07;;;;;;;6.05;3.85;;;9.70;99.90;;;;;;5076258;28;20086;-81
2021/05/18 03:12:34;;;;;;;9.77;3.45;;;9.70;99.90;;;;;;5094349;28;20137;-82
2021/05/18 03:15:02;;;;;;;5.90;3.50;;;9.70;99.90;;;;;;5093886;28;20048;-82
2021/05/18 03:17:30;;;;;;;5.10;3.35;;;9.70;99.90;;;;;;5094452;28;20059;-82
2021/05/18 03:19:57;;;;;;;3.38;3.05;;;9.60;99.90;;;;;;5075849;28;20440;-82
2021/05/18 03:22:24;;;;;;;4.78;3.50;;;9.60;99.90;;;;;;5095073;28;20076;-81
2021/05/18 03:24:51;;;;;;;7.40;3.90;;;9.50;99.90;;;;;;5102088;28;20040;-82
2021/05/18 03:27:18;;;;;;;8.30;3.92;;;9.40;99.90;;;;;;5099912;28;20083;-81
2021/05/18 03:29:48;;;;;;;4.60;3.67;;;9.30;99.90;;;;;;5099419;28;20048;-82
2021/05/18 03:35:01;;;;;;;5.63;4.07;;;9.00;99.90;;;;;;5099141;28;20497;-82
2021/05/18 03:37:43;;;;;;;9.13;5.00;;;9.00;99.90;;;;;;5098442;28;20126;-81
2021/05/18 03:40:12;;;;;;;6.82;4.13;;;8.90;99.90;;;;;;5098039;28;20087;-81
2021/05/18 03:42:48;;;;;;;5.00;4.50;;;8.90;99.90;;;;;;5098516;28;20040;-82
2021/05/18 03:45:24;;;;;;;9.02;4.65;;;8.80;99.90;;;;;;5097632;28;20048;-82
2021/05/18 03:53:46;;;;;;;5.30;4.53;;;8.70;99.90;;;;;;5097434;28;20056;-81
2021/05/18 04:04:31;;;;;;;8.95;5.38;;;8.50;99.90;;;;;;5101435;28;20071;-81
2021/05/18 04:18:06;;;;;;;10.43;5.28;;;8.70;99.90;;;;;;5100152;28;20048;-82
2021/05/18 04:53:04;;;;;;;11.05;4.75;;;10.60;99.90;;;;;;5098504;28;20130;-80
2021/05/18 05:01:09;;;;;;;15.20;5.57;;;11.00;99.90;;;;;;5097332;28;20138;-81
2021/05/18 05:03:52;;;;;;;10.00;5.45;;;11.10;99.90;;;;;;5096263;28;20159;-81
2021/05/18 05:14:25;;;;;;;8.68;4.20;;;12.10;99.90;;;;;;5094941;28;20420;-80
2021/05/18 05:16:53;;;;;;;10.93;4.85;;;12.40;99.90;;;;;;5078371;28;20083;-82
2021/05/18 05:19:21;;;;;;;13.27;4.43;;;12.50;99.90;;;;;;5096370;28;20040;-82
2021/05/18 05:21:48;;;;;;;7.25;4.60;;;12.40;99.90;;;;;;5077386;28;20075;-82
2021/05/18 05:24:15;;;;;;;10.75;4.63;;;12.40;99.90;;;;;;5097398;28;20083;-82
2021/05/18 05:26:42;;;;;;;9.85;4.28;;;12.70;99.90;;;;;;5095400;28;20076;-79
2021/05/18 05:29:09;;;;;;;8.90;4.95;;;12.70;99.90;;;;;;5096126;28;20083;-82
2021/05/18 05:31:38;;;;;;;11.00;4.60;;;12.40;99.90;;;;;;5096110;28;20044;-81
2021/05/18 05:34:06;;;;;;;7.22;4.40;;;12.30;99.90;;;;;;5095010;28;20047;-81
2021/05/18 05:36:33;;;;;;;10.13;5.00;;;12.20;99.90;;;;;;5077334;28;20080;-81
2021/05/18 05:39:04;;;;;;;12.70;4.93;;;12.00;99.90;;;;;;5094934;28;20076;-82
2021/05/18 05:41:30;;;;;;;7.90;4.35;;;11.80;99.90;;;;;;5076956;28;20645;-81
2021/05/18 05:43:57;;;;;;;12.55;3.90;;;11.90;99.90;;;;;;5097325;28;20528;-81
2021/05/18 05:46:24;;;;;;;18.80;4.68;;;12.60;99.90;;;;;;5098273;28;20591;-82
2021/05/18 05:48:54;;;;;;;11.52;4.10;;;13.00;99.90;;;;;;5099449;28;20055;-81
2021/05/18 05:51:23;;;;;;;9.80;4.00;;;13.10;99.90;;;;;;5098417;28;20163;-82
2021/05/18 05:53:50;;;;;;;7.32;3.83;;;13.10;99.90;;;;;;5081442;28;20098;-82
2021/05/18 05:56:18;;;;;;;16.17;4.50;;;12.90;99.90;;;;;;5080465;28;20048;-81
2021/05/18 05:58:45;;;;;;;8.40;4.10;;;12.90;99.90;;;;;;5098833;28;20062;-82
2021/05/18 06:01:13;;;;;;;20.92;4.05;;;13.00;99.90;;;;;;5079947;28;20105;-82
2021/05/18 06:03:41;;;;;;;9.07;4.07;;;13.00;99.90;;;;;;5079703;28;20047;-81
2021/05/18 06:06:08;;;;;;;11.02;3.80;;;13.00;99.90;;;;;;5098341;28;20086;-81
2021/05/18 06:08:43;;;;;;;7.18;4.55;;;12.80;99.90;;;;;;5097105;28;20048;-82
2021/05/18 06:14:09;;;;;;;15.00;4.47;;;12.80;99.90;;;;;;5097302;28;20078;-82
2021/05/18 06:36:55;;;;;;;11.60;4.45;;;12.90;99.90;;;;;;5094992;28;20051;-81
2021/05/18 06:41:36;;;;;;;7.95;4.15;;;12.80;99.90;;;;;;5094659;28;20146;-81
2021/05/18 06:46:55;;;;;;;7.32;3.15;;;12.60;99.90;;;;;;5094250;28;20079;-81
2021/05/18 06:49:23;;;;;;;8.45;3.75;;;12.60;99.90;;;;;;5094647;28;20208;-81
2021/05/18 06:51:49;;;;;;;9.35;3.47;;;12.60;99.90;;;;;;5094093;28;20048;-81
2021/05/18 06:54:16;;;;;;;7.53;5.50;;;12.60;99.90;;;;;;5094148;28;20059;-80
2021/05/18 06:56:46;;;;;;;17.00;8.63;;;12.60;99.90;;;;;;5075955;28;20139;-82
2021/05/18 07:02:02;;;;;;;15.20;6.60;;;12.60;99.90;;;;;;5069386;28;20079;-81
2021/05/18 07:04:29;;;;;;;10.00;4.65;;;12.60;99.90;;;;;;5080456;28;20266;-80
2021/05/18 07:07:15;;;;;;;5.72;2.55;;;12.50;99.90;;;;;;5098875;28;20135;-81
2021/05/18 07:09:43;;;;;;;4.55;2.40;;;12.20;99.90;;;;;;5080396;28;20050;-81
2021/05/18 07:12:10;;;;;;;6.13;2.65;;;11.90;99.90;;;;;;5080182;28;20150;-80
2021/05/18 07:14:36;;;;;;;4.07;2.20;;;11.70;99.90;;;;;;5098281;28;20044;-82
2021/05/18 07:17:03;;;;;;;2.00;1.60;;;11.40;99.90;;;;;;5097805;28;20060;-82
2021/05/18 07:19:30;;;;;;;1.80;1.70;;;11.30;99.90;;;;;;5078895;28;20087;-81
2021/05/18 07:21:57;;;;;;;3.92;1.98;;;11.30;99.90;;;;;;5097682;28;20097;-82
2021/05/18 07:24:29;;;;;;;3.42;1.63;;;11.40;99.90;;;;;;5097502;28;20080;-82
2021/05/18 07:26:57;;;;;;;4.13;1.73;;;11.70;99.90;;;;;;5097981;28;20112;-82
2021/05/18 07:29:23;;;;;;;4.35;1.80;;;11.80;99.90;;;;;;5097340;28;20425;-81
2021/05/18 07:31:50;;;;;;;6.10;1.95;;;11.90;99.90;;;;;;5097432;28;20131;-82
2021/05/18 07:34:17;;;;;;;1.42;1.33;;;12.20;99.90;;;;;;5082004;28;20067;-80
2021/05/18 07:36:44;;;;;;;3.22;1.67;;;12.50;99.90;;;;;;5084238;28;20467;-82
2021/05/18 07:39:10;;;;;;;3.58;1.63;;;12.80;99.90;;;;;;5105185;28;20048;-80
2021/05/18 07:41:38;;;;;;;1.65;1.08;;;13.30;99.90;;;;;;5104175;28;20056;-80
2021/05/18 07:44:05;;;;;;;2.38;0.95;;;13.60;99.90;;;;;;5102305;28;20415;-78
2021/05/18 07:46:32;;;;;;;1.20;0.90;;;14.00;99.90;;;;;;5082921;28;20070;-80
2021/05/18 08:07:22;;;;;;;0.70;0.63;;;16.90;99.90;;;;;;5103234;28;20052;-79
2021/05/18 08:12:19;;;;;;;0.82;0.57;;;17.10;99.90;;;;;;5102708;28;20048;-80
2021/05/18 08:58:18;;;;;;;1.40;0.47;;;15.90;99.90;;;;;;5035761;28;20053;-81
2021/05/18 10:38:24;;;;;;;0.98;0.30;;;23.80;64.50;;;;;;5096815;28;20052;-80
2021/05/18 10:40:52;;;;;;;3.55;0.63;;;25.50;61.40;;;;;;5097126;28;20051;-79
2021/05/18 10:43:24;;;;;;;3.42;0.50;;;24.30;60.30;;;;;;5096873;28;20044;-79
2021/05/18 10:45:55;;;;;;;1.70;0.70;;;22.80;63.50;;;;;;5097104;28;20044;-78
2021/05/18 10:48:37;;;;;;;1.75;0.73;;;21.50;69.80;;;;;;5078528;28;20055;-79
2021/05/18 10:51:27;;;;;;;1.73;0.30;;;20.50;70.70;;;;;;5080588;28;20051;-79
2021/05/18 10:54:14;;;;;;;2.17;0.70;;;19.50;75.60;;;;;;5078168;28;20449;-78
2021/05/18 10:56:53;;;;;;;2.22;0.40;;;18.80;88.50;;;;;;5095687;28;20101;-80
2021/05/18 10:59:32;;;;;;;3.38;0.40;;;18.70;92.30;;;;;;5095536;28;20056;-79
2021/05/18 11:02:28;;;;;;;3.05;0.60;;;19.20;88.70;;;;;;5095419;28;20048;-79
2021/05/18 11:05:07;;;;;;;1.23;0.32;;;18.50;88.40;;;;;;5088601;28;20072;-78
2021/05/18 11:07:38;;;;;;;0.68;0.30;;;17.70;93.40;;;;;;5095470;28;20101;-79
2021/05/18 11:10:16;;;;;;;2.05;0.50;;;17.20;99.90;;;;;;5095464;28;20699;-79
2021/05/18 11:12:44;;;;;;;1.38;0.30;;;17.10;99.90;;;;;;5098052;28;20048;-79
2021/05/18 11:15:18;;;;;;;0.75;0.30;;;17.70;99.90;;;;;;5099148;28;20048;-80
2021/05/18 11:17:47;;;;;;;0.88;0.30;;;19.70;99.90;;;;;;5079341;28;20048;-79
2021/05/18 11:23:20;;;;;;;0.30;0.20;;;23.90;79.60;;;;;;5097092;28;20135;-80
2021/05/18 11:25:56;;;;;;;4.15;0.47;;;23.60;73.80;;;;;;5096631;28;20127;-79
2021/05/18 11:28:43;;;;;;;0.98;0.20;;;23.40;72.30;;;;;;5078794;28;20086;-79
2021/05/18 11:31:11;;;;;;;2.22;0.40;;;23.40;71.00;;;;;;5078402;28;20044;-79
2021/05/18 11:33:45;;;;;;;1.00;0.45;;;25.00;64.80;;;;;;5078651;28;20074;-79
2021/05/18 11:36:14;;;;;;;3.25;0.60;;;24.80;62.60;;;;;;5077645;28;20052;-80
2021/05/18 11:38:48;;;;;;;2.35;0.30;;;23.70;64.30;;;;;;5097374;28;20051;-79
2021/05/18 11:41:23;;;;;;;1.95;0.22;;;23.10;69.00;;;;;;5079464;28;20237;-80
2021/05/18 11:43:55;;;;;;;3.42;0.77;;;23.00;68.00;;;;;;5079042;28;20082;-79
2021/05/18 11:46:23;;;;;;;1.52;0.43;;;22.90;67.50;;;;;;5100854;28;20051;-79
2021/05/18 11:49:11;;;;;;;0.82;0.40;;;22.10;68.70;;;;;;5082403;28;20105;-79
2021/05/18 11:51:49;;;;;;;1.75;0.30;;;21.80;75.70;;;;;;5082022;28;20066;-79
2021/05/18 11:54:37;;;;;;;0.73;0.40;;;22.10;67.80;;;;;;5100072;28;20056;-80
2021/05/18 11:57:05;;;;;;;1.55;0.68;;;22.70;65.80;;;;;;5099947;28;20508;-79
2021/05/18 11:59:36;;;;;;;0.50;0.30;;;22.80;65.30;;;;;;5100031;28;20044;-80
2021/05/18 12:02:05;;;;;;;1.23;0.30;;;22.50;68.10;;;;;;5081536;28;20052;-80
2021/05/18 12:04:37;;;;;;;2.80;0.22;;;21.80;63.40;;;;;;5100562;28;20048;-79
2021/05/18 12:07:10;;;;;;;1.45;0.30;;;20.80;65.90;;;;;;5099752;28;20131;-79
2021/05/18 12:09:43;;;;;;;0.55;0.30;;;20.50;68.80;;;;;;5098857;28;20052;-77
2021/05/18 12:12:11;;;;;;;0.88;0.30;;;20.30;70.20;;;;;;5080449;28;20048;-78
2021/05/18 12:14:47;;;;;;;0.45;0.25;;;19.90;71.20;;;;;;5081308;28;20447;-80
2021/05/18 12:17:33;;;;;;;0.90;0.40;;;19.60;71.40;;;;;;5098037;28;20048;-79
2021/05/18 12:20:01;;;;;;;7.53;0.88;;;19.10;73.10;;;;;;5080817;28;20101;-79
2021/05/18 12:22:29;;;;;;;2.22;0.43;;;18.40;77.70;;;;;;5097877;28;20072;-78
2021/05/18 12:24:57;;;;;;;3.67;0.38;;;18.00;82.40;;;;;;5080067;28;20055;-80
2021/05/18 12:27:25;;;;;;;0.68;0.30;;;17.90;84.20;;;;;;5080578;28;20166;-78
2021/05/18 12:29:57;;;;;;;0.82;0.20;;;17.70;82.50;;;;;;5080259;28;20130;-79
2021/05/18 12:32:34;;;;;;;3.90;0.30;;;17.90;89.20;;;;;;5097712;28;20512;-79
2021/05/18 12:35:04;;;;;;;1.20;0.28;;;18.40;84.80;;;;;;5097527;28;20066;-79
2021/05/18 12:37:45;;;;;;;0.25;0.25;;;18.70;82.10;;;;;;5097124;28;20078;-78
2021/05/18 12:40:14;;;;;;;1.02;0.30;;;19.00;81.70;;;;;;5097870;28;20044;-79
2021/05/18 12:42:43;;;;;;;4.47;0.57;;;19.40;82.90;;;;;;5097657;28;20424;-79
2021/05/18 12:45:15;;;;;;;0.95;0.30;;;19.20;77.30;;;;;;5096900;28;20048;-80
2021/05/18 12:47:42;;;;;;;0.30;0.20;;;19.60;77.20;;;;;;5079519;28;20048;-80
2021/05/18 12:50:12;;;;;;;1.02;0.35;;;20.10;74.20;;;;;;5080011;28;20169;-80
2021/05/18 12:52:41;;;;;;;3.97;0.40;;;20.20;74.60;;;;;;5098780;28;20474;-79
2021/05/18 12:55:28;;;;;;;1.27;0.32;;;20.60;74.10;;;;;;5099843;28;20044;-79
2021/05/18 12:58:05;;;;;;;3.75;0.40;;;20.10;73.30;;;;;;5100419;28;20067;-79
2021/05/18 13:00:40;;;;;;;2.28;0.25;;;19.60;75.50;;;;;;5102187;28;20113;-80
2021/05/18 13:03:14;;;;;;;1.27;0.50;;;19.30;77.50;;;;;;5102766;28;20051;-81
2021/05/18 13:05:46;;;;;;;7.22;0.80;;;19.20;78.50;;;;;;5101662;28;20127;-78
2021/05/18 13:08:18;;;;;;;4.97;0.57;;;18.80;78.30;;;;;;5080783;28;20045;-79
2021/05/18 13:13:46;;;;;;;4.63;0.50;;;19.50;81.90;;;;;;5100160;28;20519;-81
2021/05/18 13:16:19;;;;;;;1.92;0.32;;;19.90;73.90;;;;;;5098673;28;20080;-80
2021/05/18 13:19:02;;;;;;;2.40;0.55;;;19.70;76.00;;;;;;5100948;28;20148;-79
2021/05/18 13:21:33;;;;;;;0.20;0.20;;;19.80;77.80;;;;;;5079411;28;20048;-79
2021/05/18 13:24:25;;;;;;;9.98;0.65;;;19.90;76.10;;;;;;5081020;28;20113;-79
2021/05/18 13:26:49;;;;;;;2.03;0.30;;;19.60;74.10;;;;;;5098610;28;20433;-79
2021/05/18 13:29:20;;;;;;;2.38;0.50;;;19.20;74.30;;;;;;5080619;28;20044;-79
2021/05/18 13:31:50;;;;;;;3.03;0.40;;;18.80;79.90;;;;;;5079793;28;20044;-78
2021/05/18 13:34:37;;;;;;;28.98;1.30;;;18.20;83.00;;;;;;5082661;28;20070;-78
2021/05/18 13:37:04;;;;;;;4.20;0.20;;;17.30;86.40;;;;;;5098308;28;20101;-80
2021/05/18 13:39:31;;;;;;;1.17;0.20;;;16.50;89.60;;;;;;5079680;28;20554;-82
2021/05/18 13:41:58;;;;;;;22.70;1.67;;;16.00;93.50;;;;;;5096782;28;20130;-81
2021/05/18 13:44:24;;;;;;;4.00;0.52;;;15.50;98.10;;;;;;5097898;28;20058;-80
2021/05/18 13:46:52;;;;;;;0.25;0.13;;;15.00;99.90;;;;;;5097825;28;20101;-82
2021/05/18 13:49:19;;;;;;;0.22;0.10;;;14.70;99.90;;;;;;5097196;28;20466;-81
2021/05/18 13:51:45;;;;;;;1.30;0.20;;;14.40;99.90;;;;;;5096905;28;20130;-81
2021/05/18 13:54:29;;;;;;;5.00;0.70;;;14.10;99.90;;;;;;5082406;28;20055;-81
2021/05/18 13:56:57;;;;;;;0.20;0.20;;;13.90;99.90;;;;;;5097130;28;20083;-81
2021/05/18 13:59:24;;;;;;;6.43;0.32;;;13.70;99.90;;;;;;5097164;28;20080;-82
2021/05/18 14:01:51;;;;;;;1.55;0.38;;;13.50;99.90;;;;;;5095852;28;20048;-80
2021/05/18 14:04:18;;;;;;;3.53;0.43;;;13.30;99.90;;;;;;5096558;28;20101;-81
2021/05/18 14:10:13;;;;;;;1.35;0.30;;;14.00;99.90;;;;;;5014289;28;20041;-81
2021/05/18 14:12:40;;;;;;;0.65;0.32;;;14.40;99.90;;;;;;5094159;28;20078;-79
2021/05/18 14:15:07;;;;;;;1.65;0.20;;;14.80;99.90;;;;;;5095215;28;20496;-79
2021/05/18 14:17:34;;;;;;;0.20;0.17;;;15.30;99.90;;;;;;5095524;28;20533;-80
2021/05/18 14:20:01;;;;;;;0.43;0.22;;;15.50;99.90;;;;;;5076290;28;20051;-79
2021/05/18 14:22:29;;;;;;;0.28;0.28;;;15.40;99.90;;;;;;5095732;28;20454;-79
2021/05/18 14:25:06;;;;;;;1.40;0.20;;;15.20;99.90;;;;;;5094655;28;20048;-79
2021/05/18 14:27:35;;;;;;;2.30;0.28;;;15.00;99.90;;;;;;5093991;28;20462;-78
2021/05/18 14:30:05;;;;;;;9.32;1.10;;;14.90;99.90;;;;;;5095124;28;20098;-80
2021/05/18 14:32:32;;;;;;;0.43;0.20;;;14.80;99.90;;;;;;5094554;28;20409;-79
2021/05/18 14:34:59;;;;;;;0.20;0.20;;;14.70;99.90;;;;;;5075789;28;20048;-79
2021/05/18 14:37:25;;;;;;;1.88;0.70;;;14.60;99.90;;;;;;5094658;28;20048;-79
2021/05/18 14:40:06;;;;;;;9.73;1.35;;;14.60;99.90;;;;;;5094262;28;20051;-79
2021/05/18 14:45:28;;;;;;;3.17;0.60;;;14.60;99.90;;;;;;5096768;28;20071;-81
2021/05/18 14:48:28;;;;;;;0.40;0.40;;;14.60;99.90;;;;;;5078478;28;20053;-79
2021/05/18 14:53:42;;;;;;;1.70;0.68;;;14.70;99.90;;;;;;5100772;28;20044;-81
2021/05/18 14:56:21;;;;;;;2.25;0.45;;;14.70;99.90;;;;;;5098571;28;20044;-81
2021/05/18 14:58:48;;;;;;;1.65;0.47;;;14.80;99.90;;;;;;5080071;28;20056;-81
2021/05/18 15:01:14;;;;;;;4.03;0.55;;;14.90;99.90;;;;;;5096966;28;20134;-80
2021/05/18 15:03:41;;;;;;;0.60;0.50;;;14.90;99.90;;;;;;5096223;28;20415;-80
2021/05/18 15:06:08;;;;;;;2.00;0.40;;;15.10;99.90;;;;;;5077687;28;20087;-80
2021/05/18 15:08:36;;;;;;;2.70;0.50;;;15.20;99.90;;;;;;5078650;28;20138;-80
2021/05/18 15:11:04;;;;;;;3.78;0.63;;;15.30;99.90;;;;;;5075074;28;20094;-81
2021/05/18 15:13:33;;;;;;;4.80;0.80;;;15.30;99.90;;;;;;5076784;28;20040;-78
2021/05/18 15:16:01;;;;;;;13.25;1.77;;;15.50;99.90;;;;;;5082978;28;20052;-81
2021/05/18 15:18:33;;;;;;;0.98;0.50;;;15.70;99.90;;;;;;5078315;28;20052;-82
2021/05/18 15:21:00;;;;;;;1.02;0.30;;;16.10;99.90;;;;;;5074591;28;20080;-81
2021/05/18 15:23:28;;;;;;;0.17;0.13;;;16.40;99.90;;;;;;5082169;28;20044;-82
2021/05/18 15:25:56;;;;;;;5.28;1.45;;;16.60;99.90;;;;;;5066568;28;20036;-81
2021/05/18 15:28:23;;;;;;;1.35;0.65;;;16.40;99.90;;;;;;5062637;28;20135;-80
2021/05/18 15:30:49;;;;;;;15.32;1.23;;;16.50;99.90;;;;;;5075109;28;20507;-81
2021/05/18 15:33:16;;;;;;;0.45;0.40;;;16.40;99.90;;;;;;5082815;28;20524;-81
2021/05/18 15:35:43;;;;;;;1.45;0.30;;;16.50;99.90;;;;;;5100345;28;20044;-81
2021/05/18 15:38:10;;;;;;;0.20;0.20;;;16.60;99.90;;;;;;5094996;28;20060;-79
2021/05/18 15:40:37;;;;;;;1.35;0.13;;;16.60;99.90;;;;;;5080199;28;20136;-80
2021/05/18 15:43:03;;;;;;;2.20;0.73;;;16.40;99.90;;;;;;5061814;28;20483;-80
2021/05/18 15:45:30;;;;;;;6.47;0.90;;;16.30;99.90;;;;;;5060266;28;20091;-79
2021/05/18 15:47:58;;;;;;;7.50;0.50;;;16.20;99.90;;;;;;5078668;28;20123;-81
2021/05/18 15:50:26;;;;;;;3.33;0.63;;;16.10;99.90;;;;;;5079240;28;20067;-80
2021/05/18 15:52:52;;;;;;;7.53;0.52;;;15.80;99.90;;;;;;5070356;28;20083;-81
2021/05/18 15:55:19;;;;;;;2.92;0.25;;;15.50;99.90;;;;;;5080854;28;20462;-79
2021/05/18 15:57:46;;;;;;;1.67;0.20;;;14.90;99.90;;;;;;5099705;28;20047;-79
2021/05/18 16:00:13;;;;;;;0.20;0.20;;;14.50;99.90;;;;;;5100004;28;20044;-80
2021/05/18 16:02:42;;;;;;;0.30;0.30;;;14.20;99.90;;;;;;5081692;28;20101;-80
2021/05/18 16:05:09;;;;;;;2.58;0.57;;;13.70;99.90;;;;;;5099096;28;20044;-80
2021/05/18 16:07:37;;;;;;;0.60;0.57;;;13.30;99.90;;;;;;5081107;28;20079;-80
2021/05/18 16:10:05;;;;;;;0.60;0.40;;;13.00;99.90;;;;;;5079118;28;20044;-79
2021/05/18 16:12:32;;;;;;;0.47;0.30;;;12.80;99.90;;;;;;5079540;28;20093;-80
2021/05/18 16:14:58;;;;;;;0.43;0.43;;;12.70;99.90;;;;;;5098398;28;20052;-80
2021/05/18 16:17:25;;;;;;;0.47;0.45;;;12.50;99.90;;;;;;5076781;28;20531;-80
2021/05/18 16:19:52;;;;;;;1.25;0.40;;;12.40;99.90;;;;;;5059437;28;20080;-82
2021/05/18 16:22:19;;;;;;;2.80;0.80;;;12.20;99.90;;;;;;5075634;28;20045;-83
2021/05/18 16:24:46;;;;;;;3.45;0.63;;;12.00;99.90;;;;;;5068943;28;20037;-84
2021/05/18 16:27:16;;;;;;;1.15;1.02;;;11.50;99.90;;;;;;5059294;28;20049;-84
2021/05/18 16:29:43;;;;;;;3.42;0.80;;;11.20;99.90;;;;;;5058758;28;20053;-84
2021/05/18 16:32:11;;;;;;;3.63;0.43;;;10.90;99.90;;;;;;5057770;28;20409;-85
2021/05/18 16:34:38;;;;;;;3.22;3.10;;;10.80;99.90;;;;;;5058909;28;20048;-83
2021/05/18 16:37:05;;;;;;;1.50;0.70;;;10.70;99.90;;;;;;5059150;28;20060;-84
2021/05/18 16:39:32;;;;;;;1.02;0.63;;;10.90;99.90;;;;;;5064867;28;20079;-85
2021/05/18 16:41:59;;;;;;;0.60;0.50;;;10.90;99.90;;;;;;5068864;28;20064;-85
2021/05/18 16:44:26;;;;;;;0.82;0.80;;;11.00;99.90;;;;;;5068432;28;20053;-85
2021/05/18 16:46:52;;;;;;;1.63;0.90;;;11.00;99.90;;;;;;5066862;28;20075;-84
2021/05/18 16:49:19;;;;;;;3.72;0.65;;;11.10;99.90;;;;;;5065840;28;20049;-84
2021/05/18 16:51:48;;;;;;;2.55;1.23;;;11.20;99.90;;;;;;5066422;28;20049;-85
2021/05/18 16:54:16;;;;;;;1.73;1.33;;;11.20;99.90;;;;;;5064569;28;20390;-85
2021/05/18 16:56:44;;;;;;;5.28;2.25;;;11.50;99.90;;;;;;5066531;28;20045;-84
2021/05/18 16:59:11;;;;;;;1.75;0.95;;;11.60;99.90;;;;;;5063098;28;20098;-83
2021/05/18 17:01:37;;;;;;;2.88;1.23;;;11.60;99.90;;;;;;5053570;28;20083;-84
2021/05/18 17:04:11;;;;;;;3.60;0.70;;;11.70;99.90;;;;;;5054714;28;20131;-85
2021/05/18 17:06:38;;;;;;;0.50;0.50;;;11.60;99.90;;;;;;5055643;28;20386;-83
2021/05/18 17:09:07;;;;;;;2.50;0.70;;;11.60;99.90;;;;;;5056228;28;20110;-83
2021/05/18 17:11:35;;;;;;;4.13;1.33;;;11.50;99.90;;;;;;5054187;28;20052;-84
2021/05/18 17:14:02;;;;;;;2.80;0.90;;;11.50;99.90;;;;;;5054768;28;20045;-83
2021/05/18 17:16:29;;;;;;;0.77;0.77;;;11.60;99.90;;;;;;5066942;28;20060;-83
2021/05/18 17:18:56;;;;;;;3.05;0.60;;;11.70;99.90;;;;;;5075672;28;20436;-83
2021/05/18 17:21:23;;;;;;;1.15;0.73;;;11.80;99.90;;;;;;5057993;28;20056;-83
2021/05/18 17:23:50;;;;;;;0.93;0.57;;;12.00;99.90;;;;;;5057684;28;20638;-84
2021/05/18 17:26:17;;;;;;;2.70;0.60;;;12.30;99.90;;;;;;5056888;28;20049;-83
2021/05/18 17:28:44;;;;;;;4.85;0.90;;;12.40;99.90;;;;;;5075507;28;20099;-83
2021/05/18 17:31:14;;;;;;;1.58;0.47;;;12.60;99.90;;;;;;5057183;28;20745;-83
2021/05/18 17:33:43;;;;;;;2.33;0.77;;;12.70;99.90;;;;;;5056947;28;20053;-82
2021/05/18 17:36:10;;;;;;;1.20;0.63;;;12.90;99.90;;;;;;5056657;28;20048;-83
2021/05/18 17:38:36;;;;;;;0.73;0.40;;;13.00;99.90;;;;;;5074423;28;20523;-83
2021/05/18 17:41:05;;;;;;;4.13;0.85;;;13.00;99.90;;;;;;5059217;28;20102;-83
2021/05/18 17:43:32;;;;;;;0.50;0.50;;;13.00;99.90;;;;;;5058238;28;20070;-82
2021/05/18 17:46:00;;;;;;;1.40;1.05;;;12.90;99.90;;;;;;5076813;28;20048;-82
2021/05/18 17:48:27;;;;;;;1.95;0.70;;;12.80;99.90;;;;;;5058909;28;20048;-81
2021/05/18 17:50:54;;;;;;;0.40;0.40;;;12.90;99.90;;;;;;5058069;28;20055;-82
2021/05/18 17:53:21;;;;;;;0.80;0.80;;;12.80;99.90;;;;;;5057678;28;20544;-82
2021/05/18 17:55:49;;;;;;;1.85;0.50;;;12.70;99.90;;;;;;5057105;28;20055;-82
2021/05/18 17:58:15;;;;;;;0.57;0.57;;;12.60;99.90;;;;;;5074966;28;20140;-82
2021/05/18 18:00:42;;;;;;;0.57;0.57;;;12.60;99.90;;;;;;5057755;28;20163;-81